Nova Cruz, Brazil
Current Conditions -  °F | °C
As of 5:00 PM on Wednesday 26 Nov 2014 (Local Time) from SBNT Reporting Station
Few Clouds Few Clouds  
Wind Chill: 81°   Ceiling: Unl
Heat Index: 84°   Visibility: 6mi
Dew Point: 70°   Wind: 14mph
Humidity: 70%   Direction: 130°SE
Pressure: 29.88"   Gusts: NA
Location:  6.48°S, 35.43°W
Report Text: SBNT 262000Z 13012KT 9999 FEW025 27/21 Q1012
Loading
Personal Weather Stations






























Interactive Weather Map New forecast layout! Learn more

10-Day Weather Forecast

Advertisements
Track Severe Weather on mobile